createdAt,value
2022-12-03T00:00:49.893Z,14.95
2022-12-03T00:03:17.041Z,13.07
2022-12-03T00:05:48.800Z,11.25
2022-12-03T00:08:16.733Z,10.25
2022-12-03T00:10:43.681Z,11.90
2022-12-03T00:13:10.600Z,11.02
2022-12-03T00:15:38.001Z,11.68
2022-12-03T00:18:04.882Z,14.25
2022-12-03T00:20:34.535Z,10.32
2022-12-03T00:23:01.638Z,11.05
2022-12-03T00:25:29.383Z,11.45
2022-12-03T00:28:01.735Z,10.75
2022-12-03T00:30:28.900Z,10.80
2022-12-03T00:32:55.830Z,10.85
2022-12-03T00:35:22.799Z,10.15
2022-12-03T00:37:49.895Z,9.95
2022-12-03T00:40:17.246Z,9.38
2022-12-03T00:42:44.432Z,11.00
2022-12-03T00:45:11.662Z,10.33
2022-12-03T00:47:41.800Z,11.43
2022-12-03T00:50:10.318Z,9.90
2022-12-03T00:52:37.476Z,9.60
2022-12-03T00:55:04.995Z,10.60
2022-12-03T00:57:34.257Z,10.85
2022-12-03T01:00:01.434Z,10.93
2022-12-03T01:02:28.517Z,9.35
2022-12-03T01:04:55.943Z,9.45
2022-12-03T01:07:23.665Z,10.02
2022-12-03T01:09:54.343Z,10.50
2022-12-03T01:12:21.536Z,11.90
2022-12-03T01:14:48.731Z,10.07
2022-12-03T01:17:15.754Z,9.10
2022-12-03T01:19:48.207Z,9.38
2022-12-03T01:22:18.035Z,9.18
2022-12-03T01:24:44.996Z,9.15
2022-12-03T01:27:12.270Z,8.75
2022-12-03T01:29:39.145Z,9.00
2022-12-03T01:32:19.713Z,8.60
2022-12-03T01:34:54.840Z,10.70
2022-12-03T01:37:26.430Z,8.70
2022-12-03T01:39:56.947Z,9.25
2022-12-03T01:42:40.103Z,9.23
2022-12-03T01:45:11.516Z,10.00
2022-12-03T01:47:41.799Z,8.95
2022-12-03T01:50:14.951Z,9.43
2022-12-03T01:52:44.964Z,9.05
2022-12-03T01:55:17.052Z,9.15
2022-12-03T01:57:47.216Z,8.63
2022-12-03T02:00:23.264Z,8.60
2022-12-03T02:02:53.917Z,8.40
2022-12-03T02:05:23.790Z,10.38
2022-12-03T02:07:51.072Z,8.73
2022-12-03T02:10:23.147Z,9.63
2022-12-03T02:12:58.212Z,9.13
2022-12-03T02:15:25.768Z,8.63
2022-12-03T02:17:54.066Z,9.85
2022-12-03T02:20:21.538Z,8.20
2022-12-03T02:23:18.081Z,8.35
2022-12-03T02:25:45.246Z,8.73
2022-12-03T02:28:14.736Z,8.70
2022-12-03T02:30:42.114Z,8.05
2022-12-03T02:33:09.307Z,8.03
2022-12-03T02:35:40.673Z,7.70
2022-12-03T02:38:07.737Z,8.50
2022-12-03T02:40:35.075Z,8.05
2022-12-03T02:43:03.145Z,9.10
2022-12-03T02:48:33.323Z,8.80
2022-12-03T02:51:04.379Z,7.80
2022-12-03T02:53:42.354Z,7.95
2022-12-03T02:58:42.083Z,7.90
2022-12-03T03:01:11.056Z,9.18
2022-12-03T03:03:38.902Z,7.13
2022-12-03T03:06:07.149Z,8.00
2022-12-03T03:08:35.182Z,7.43
2022-12-03T03:11:05.009Z,7.30
2022-12-03T03:13:36.664Z,7.90
2022-12-03T03:16:04.980Z,8.05
2022-12-03T03:18:33.452Z,8.45
2022-12-03T03:21:01.047Z,7.80
2022-12-03T03:23:28.195Z,8.30
2022-12-03T03:26:06.337Z,7.35
2022-12-03T03:28:37.527Z,7.38
2022-12-03T03:31:06.847Z,8.52
2022-12-03T03:33:34.961Z,7.45
2022-12-03T03:38:30.431Z,7.10
2022-12-03T03:40:59.900Z,7.78
2022-12-03T03:43:31.188Z,7.47
2022-12-03T03:45:58.257Z,9.95
2022-12-03T03:48:27.333Z,7.68
2022-12-03T03:50:54.335Z,8.38
2022-12-03T03:53:23.174Z,7.63
2022-12-03T03:55:51.097Z,8.38
2022-12-03T03:58:18.466Z,7.30
2022-12-03T04:00:46.966Z,7.35
2022-12-03T04:03:14.394Z,7.38
2022-12-03T04:05:41.648Z,7.15
2022-12-03T04:08:08.669Z,6.83
2022-12-03T04:10:54.292Z,9.40
2022-12-03T04:13:21.462Z,7.10
2022-12-03T04:15:48.690Z,7.82
2022-12-03T04:18:34.046Z,7.30
2022-12-03T04:21:19.832Z,6.75
2022-12-03T04:23:46.990Z,6.97
2022-12-03T04:26:32.824Z,6.82
2022-12-03T04:29:00.175Z,7.45
2022-12-03T04:31:45.827Z,7.00
2022-12-03T04:34:31.019Z,7.07
2022-12-03T04:36:58.422Z,7.45
2022-12-03T04:39:27.722Z,7.93
2022-12-03T04:41:57.091Z,6.82
2022-12-03T04:44:38.324Z,7.28
2022-12-03T04:47:11.665Z,6.95
2022-12-03T04:49:47.395Z,7.10
2022-12-03T04:52:16.412Z,6.93
2022-12-03T04:54:43.694Z,7.00
2022-12-03T04:57:11.159Z,8.60
2022-12-03T04:59:38.883Z,7.47
2022-12-03T05:02:06.939Z,6.40
2022-12-03T05:07:07.629Z,7.07
2022-12-03T05:09:37.102Z,7.22
2022-12-03T05:12:04.520Z,6.60
2022-12-03T05:14:31.891Z,6.88
2022-12-03T05:17:01.477Z,6.95
2022-12-03T05:19:54.181Z,8.07
2022-12-03T05:22:26.101Z,7.10
2022-12-03T05:24:53.287Z,7.10
2022-12-03T05:27:24.098Z,7.73
2022-12-03T05:29:52.273Z,6.60
2022-12-03T05:32:20.299Z,6.72
2022-12-03T05:34:47.326Z,6.47
2022-12-03T05:37:14.479Z,7.25
2022-12-03T05:39:41.425Z,6.60
2022-12-03T05:42:28.637Z,7.03
2022-12-03T05:44:55.713Z,6.80
2022-12-03T05:47:22.671Z,7.38
2022-12-03T05:49:49.476Z,6.93
2022-12-03T05:52:16.630Z,7.03
2022-12-03T05:54:43.545Z,7.60
2022-12-03T05:57:12.457Z,7.10
2022-12-03T05:59:39.740Z,7.65
2022-12-03T06:02:09.294Z,7.10
2022-12-03T06:04:36.560Z,7.32
2022-12-03T06:07:03.977Z,9.77
2022-12-03T06:09:31.122Z,29.65
2022-12-03T06:11:57.934Z,36.00
2022-12-03T06:14:24.801Z,27.23
2022-12-03T06:16:52.001Z,39.53
2022-12-03T06:19:19.009Z,69.15
2022-12-03T06:21:45.833Z,32.15
2022-12-03T06:24:13.008Z,34.38
2022-12-03T06:26:39.844Z,60.88
2022-12-03T06:29:06.653Z,113.25
2022-12-03T06:31:33.521Z,169.18
2022-12-03T06:34:00.376Z,215.35
2022-12-03T06:36:27.979Z,115.50
2022-12-03T06:38:55.471Z,217.95
2022-12-03T06:41:25.319Z,161.55
2022-12-03T06:43:52.483Z,143.57
2022-12-03T06:46:22.039Z,154.68
2022-12-03T06:48:48.880Z,133.02
2022-12-03T06:51:16.027Z,135.05
2022-12-03T06:53:43.180Z,144.13
2022-12-03T06:56:10.393Z,126.75
2022-12-03T06:58:37.536Z,139.13
2022-12-03T07:01:04.765Z,127.13
2022-12-03T07:03:31.562Z,123.70
2022-12-03T07:05:58.716Z,120.60
2022-12-03T07:08:25.639Z,134.70
2022-12-03T07:10:52.850Z,125.75
2022-12-03T07:13:22.283Z,116.15
2022-12-03T07:15:49.281Z,122.45
2022-12-03T07:18:16.505Z,122.95
2022-12-03T07:20:43.375Z,110.07
2022-12-03T07:23:10.255Z,120.85
2022-12-03T07:25:37.467Z,100.82
2022-12-03T07:28:04.657Z,112.35
2022-12-03T07:30:34.807Z,112.10
2022-12-03T07:33:04.333Z,108.22
2022-12-03T07:35:33.338Z,109.65
2022-12-03T07:38:01.142Z,107.55
2022-12-03T07:40:28.654Z,101.72
2022-12-03T07:42:55.591Z,92.75
2022-12-03T07:45:25.766Z,98.38
2022-12-03T07:47:52.563Z,100.13
2022-12-03T07:50:22.916Z,98.13
2022-12-03T07:52:49.950Z,93.55
2022-12-03T07:55:20.002Z,89.85
2022-12-03T07:57:47.091Z,85.15
2022-12-03T08:00:14.992Z,86.90
2022-12-03T08:02:41.865Z,102.22
2022-12-03T08:05:09.329Z,85.43
2022-12-03T08:07:36.558Z,85.43
2022-12-03T08:10:05.972Z,89.13
2022-12-03T08:12:44.733Z,83.05
2022-12-03T08:15:35.193Z,80.07
2022-12-03T08:18:20.010Z,85.57
2022-12-03T08:20:54.043Z,84.10
2022-12-03T08:23:25.362Z,81.55
2022-12-03T08:25:53.379Z,82.57
2022-12-03T08:28:26.097Z,80.07
2022-12-03T08:31:05.963Z,77.18
2022-12-03T08:33:35.528Z,75.60
2022-12-03T08:36:12.942Z,77.57
2022-12-03T08:38:39.923Z,75.63
2022-12-03T08:41:15.789Z,75.70
2022-12-03T08:43:44.223Z,74.43
2022-12-03T08:46:18.200Z,78.43
2022-12-03T08:48:49.363Z,74.85
2022-12-03T08:51:26.427Z,53.95
2022-12-03T08:54:01.807Z,36.95
2022-12-03T08:56:31.326Z,30.83
2022-12-03T08:59:26.499Z,28.92
2022-12-03T09:02:13.697Z,28.00
2022-12-03T09:04:46.317Z,26.92
2022-12-03T09:07:13.861Z,23.45
2022-12-03T09:09:40.926Z,25.92
2022-12-03T09:12:07.939Z,29.20
2022-12-03T09:14:35.273Z,27.15
2022-12-03T09:17:02.215Z,36.83
2022-12-03T09:19:31.322Z,50.88
2022-12-03T09:21:58.563Z,41.95
2022-12-03T09:24:25.722Z,38.15
2022-12-03T09:26:52.928Z,41.13
2022-12-03T09:29:22.515Z,31.63
2022-12-03T09:31:49.603Z,33.80
2022-12-03T09:34:18.889Z,29.80
2022-12-03T09:36:46.515Z,32.45
2022-12-03T09:39:14.261Z,28.25
2022-12-03T09:41:41.447Z,33.60
2022-12-03T09:44:13.927Z,28.17
2022-12-03T09:46:46.211Z,27.23
2022-12-03T09:49:17.058Z,27.40
2022-12-03T09:51:47.007Z,28.48
2022-12-03T09:54:24.229Z,31.02
2022-12-03T09:56:52.788Z,26.90
2022-12-03T09:59:26.325Z,27.58
2022-12-03T10:01:56.583Z,22.95
2022-12-03T10:04:24.405Z,27.98
2022-12-03T10:06:52.052Z,23.48
2022-12-03T10:09:27.376Z,24.95
2022-12-03T10:11:57.686Z,24.13
2022-12-03T10:14:30.052Z,24.13
2022-12-03T10:16:57.141Z,19.77
2022-12-03T10:19:32.330Z,26.00
2022-12-03T10:21:59.749Z,24.67
2022-12-03T10:24:34.304Z,22.50
2022-12-03T10:27:23.018Z,23.42
2022-12-03T10:30:01.069Z,21.10
2022-12-03T10:35:36.263Z,19.85
2022-12-03T10:38:07.587Z,23.20
2022-12-03T10:40:39.341Z,18.98
2022-12-03T10:43:17.940Z,19.08
2022-12-03T10:45:47.169Z,19.35
2022-12-03T10:48:26.330Z,20.02
2022-12-03T10:50:57.612Z,18.95
2022-12-03T10:53:30.713Z,19.42
2022-12-03T10:56:02.039Z,20.98
2022-12-03T10:58:37.473Z,18.80
2022-12-03T11:01:18.707Z,19.75
2022-12-03T11:03:46.038Z,19.48
2022-12-03T11:06:15.818Z,17.80
2022-12-03T11:08:45.186Z,16.98
2022-12-03T11:11:41.042Z,20.10
2022-12-03T11:14:11.315Z,16.20
2022-12-03T11:16:41.227Z,17.55
2022-12-03T11:19:14.064Z,16.40
2022-12-03T11:24:40.710Z,15.95
2022-12-03T11:27:18.370Z,16.08
2022-12-03T11:29:49.918Z,16.90
2022-12-03T11:32:39.026Z,16.40
2022-12-03T11:35:14.977Z,16.27
2022-12-03T11:37:42.151Z,15.80
2022-12-03T11:40:18.498Z,16.85
2022-12-03T11:42:48.296Z,15.00
2022-12-03T11:45:28.644Z,15.60
2022-12-03T11:47:58.784Z,15.02
2022-12-03T11:50:40.322Z,16.17
2022-12-03T11:53:26.197Z,14.13
2022-12-03T11:56:06.776Z,15.38
2022-12-03T11:58:36.287Z,15.18
2022-12-03T12:01:08.230Z,14.88
2022-12-03T12:03:50.381Z,15.95
2022-12-03T12:06:18.978Z,14.52
2022-12-03T12:08:51.653Z,15.32
2022-12-03T12:11:27.385Z,13.90
2022-12-03T12:14:00.979Z,15.77
2022-12-03T12:16:53.751Z,15.98
2022-12-03T12:19:34.448Z,14.93
2022-12-03T12:22:16.325Z,13.73
2022-12-03T12:24:51.849Z,13.80
2022-12-03T12:27:22.139Z,13.80
2022-12-03T12:30:00.895Z,13.90
2022-12-03T12:32:34.260Z,14.93
2022-12-03T12:35:23.252Z,15.95
2022-12-03T12:38:00.481Z,14.13
2022-12-03T12:40:30.470Z,13.63
2022-12-03T12:42:58.978Z,13.90
2022-12-03T12:45:28.164Z,13.98
2022-12-03T12:48:03.613Z,13.23
2022-12-03T12:50:33.208Z,12.30
2022-12-03T12:53:35.863Z,13.70
2022-12-03T12:56:26.096Z,12.35
2022-12-03T12:58:54.499Z,13.32
2022-12-03T13:01:30.443Z,12.32
2022-12-03T13:04:00.605Z,12.35
2022-12-03T13:06:30.507Z,12.50
2022-12-03T13:08:59.107Z,12.20
2022-12-03T13:11:34.951Z,11.70
2022-12-03T13:14:25.816Z,12.32
2022-12-03T13:16:55.250Z,12.52
2022-12-03T13:19:27.614Z,11.82
2022-12-03T13:22:00.973Z,11.98
2022-12-03T13:24:37.049Z,11.55
2022-12-03T13:27:22.856Z,11.30
2022-12-03T13:29:56.572Z,11.10
2022-12-03T13:32:31.892Z,11.77
2022-12-03T13:35:18.906Z,11.40
2022-12-03T13:37:45.700Z,10.50
2022-12-03T13:40:31.165Z,11.75
2022-12-03T13:42:59.471Z,11.07
2022-12-03T13:45:32.153Z,10.75
2022-12-03T13:48:10.921Z,11.25
2022-12-03T13:50:40.279Z,11.38
2022-12-03T13:53:27.148Z,10.73
2022-12-03T13:56:22.546Z,11.70
2022-12-03T13:58:49.729Z,10.45
2022-12-03T14:01:17.056Z,11.05
2022-12-03T14:03:43.939Z,11.10
2022-12-03T14:06:11.180Z,10.93
2022-12-03T14:08:38.389Z,11.32
2022-12-03T14:11:05.345Z,11.23
2022-12-03T14:13:35.447Z,11.60
2022-12-03T14:16:02.705Z,10.20
2022-12-03T14:18:29.752Z,12.87
2022-12-03T14:20:56.623Z,10.63
2022-12-03T14:23:26.032Z,11.90
2022-12-03T14:25:58.059Z,10.88
2022-12-03T14:28:24.928Z,10.70
2022-12-03T14:30:51.761Z,10.55
2022-12-03T14:33:19.005Z,10.43
2022-12-03T14:35:53.863Z,12.02
2022-12-03T14:38:20.693Z,9.77
2022-12-03T14:40:47.560Z,10.65
2022-12-03T14:43:14.504Z,9.93
2022-12-03T14:45:41.615Z,10.10
2022-12-03T14:48:08.856Z,10.18
2022-12-03T14:50:35.834Z,9.33
2022-12-03T14:53:02.780Z,10.73
2022-12-03T14:55:29.623Z,9.63
2022-12-03T14:57:59.057Z,9.82
2022-12-03T15:00:25.926Z,11.70
2022-12-03T15:02:52.938Z,11.73
2022-12-03T15:05:27.887Z,9.98
2022-12-03T15:07:55.723Z,11.50
2022-12-03T15:10:25.261Z,17.83
2022-12-03T15:12:54.910Z,20.15
2022-12-03T15:15:22.086Z,11.10
2022-12-03T15:17:49.232Z,19.20
2022-12-03T15:20:18.521Z,28.30
2022-12-03T15:22:45.391Z,34.10
2022-12-03T15:25:12.926Z,31.20
2022-12-03T15:27:41.573Z,37.65
2022-12-03T15:30:11.570Z,48.13
2022-12-03T15:32:38.718Z,48.08
2022-12-03T15:35:08.692Z,42.38
2022-12-03T15:37:36.007Z,36.83
2022-12-03T15:40:03.051Z,38.57
2022-12-03T15:42:30.553Z,46.42
2022-12-03T15:44:57.774Z,32.72
2022-12-03T15:47:25.092Z,55.00
2022-12-03T15:49:55.299Z,42.53
2022-12-03T15:52:22.546Z,34.33
2022-12-03T15:54:55.636Z,34.20
2022-12-03T15:57:22.796Z,31.67
2022-12-03T15:59:49.964Z,29.10
2022-12-03T16:02:18.923Z,26.85
2022-12-03T16:04:45.990Z,41.58
2022-12-03T16:07:13.238Z,59.60
2022-12-03T16:09:40.216Z,32.17
2022-12-03T16:12:07.173Z,30.88
2022-12-03T16:14:36.218Z,40.00
2022-12-03T16:17:03.307Z,28.20
2022-12-03T16:19:30.527Z,33.60
2022-12-03T16:21:57.686Z,31.75
2022-12-03T16:24:24.916Z,32.55
2022-12-03T16:26:54.450Z,25.67
2022-12-03T16:29:21.621Z,24.80
2022-12-03T16:31:51.649Z,25.38
2022-12-03T16:34:18.599Z,23.27
2022-12-03T16:36:45.825Z,29.75
2022-12-03T16:39:13.363Z,28.15
2022-12-03T16:41:40.624Z,28.10
2022-12-03T16:44:20.033Z,22.23
2022-12-03T16:46:49.718Z,25.08
2022-12-03T16:49:16.966Z,25.50
2022-12-03T16:51:43.923Z,23.70
2022-12-03T16:54:11.785Z,20.52
2022-12-03T16:56:39.093Z,21.23
2022-12-03T16:59:06.040Z,20.53
2022-12-03T17:01:33.462Z,18.08
2022-12-03T17:04:03.336Z,14.45
2022-12-03T17:06:30.924Z,20.67
2022-12-03T17:09:00.741Z,20.63
2022-12-03T17:11:27.973Z,18.17
2022-12-03T17:13:55.135Z,19.23
2022-12-03T17:16:22.429Z,18.23
2022-12-03T17:18:52.472Z,19.27
2022-12-03T17:21:22.324Z,16.63
2022-12-03T17:23:51.147Z,18.17
2022-12-03T17:26:19.194Z,17.52
2022-12-03T17:28:46.802Z,18.30
2022-12-03T17:31:16.677Z,15.73
2022-12-03T17:33:43.661Z,17.25
2022-12-03T17:36:10.777Z,15.95
2022-12-03T17:38:39.480Z,17.15
2022-12-03T17:41:07.592Z,20.25
2022-12-03T17:43:37.079Z,21.58
2022-12-03T17:46:06.857Z,13.63
2022-12-03T17:48:34.378Z,16.88
2022-12-03T17:51:03.722Z,15.60
2022-12-03T17:53:30.704Z,17.65
2022-12-03T17:55:57.922Z,17.27
2022-12-03T17:58:28.105Z,18.35
2022-12-03T18:01:01.811Z,15.23
2022-12-03T18:03:29.530Z,16.10
2022-12-03T18:05:56.612Z,15.18
2022-12-03T18:08:23.565Z,14.02
2022-12-03T18:10:50.834Z,16.90
2022-12-03T18:13:18.013Z,17.05
2022-12-03T18:15:44.932Z,14.30
2022-12-03T18:18:12.127Z,16.67
2022-12-03T18:20:39.389Z,15.98
2022-12-03T18:23:06.390Z,15.05
2022-12-03T18:25:33.337Z,14.63
2022-12-03T18:28:00.316Z,16.30
2022-12-03T18:30:27.170Z,13.13
2022-12-03T18:32:54.403Z,12.80
2022-12-03T18:35:21.593Z,15.60
2022-12-03T18:37:52.571Z,13.38
2022-12-03T18:40:24.012Z,16.73
2022-12-03T18:42:52.150Z,15.98
2022-12-03T18:45:21.875Z,17.95
2022-12-03T18:47:49.476Z,15.68
2022-12-03T18:50:16.556Z,12.20
2022-12-03T18:52:43.580Z,11.85
2022-12-03T18:55:17.999Z,12.80
2022-12-03T18:57:45.373Z,14.10
2022-12-03T19:00:13.845Z,14.07
2022-12-03T19:05:28.066Z,12.87
2022-12-03T19:07:57.602Z,13.10
2022-12-03T19:10:28.050Z,12.20
2022-12-03T19:12:54.903Z,12.45
2022-12-03T19:15:22.162Z,13.10
2022-12-03T19:17:50.369Z,12.43
2022-12-03T19:20:17.616Z,11.77
2022-12-03T19:22:44.462Z,12.73
2022-12-03T19:25:11.336Z,12.25
2022-12-03T19:27:38.592Z,13.32
2022-12-03T19:30:09.466Z,10.32
2022-12-03T19:32:36.941Z,19.73
2022-12-03T19:35:07.927Z,14.10
2022-12-03T19:37:35.732Z,14.98
2022-12-03T19:40:03.281Z,13.25
2022-12-03T19:42:31.517Z,11.77
2022-12-03T19:44:59.291Z,12.85
2022-12-03T19:47:26.336Z,13.68
2022-12-03T19:49:53.948Z,13.68
2022-12-03T19:52:21.614Z,12.23
2022-12-03T19:54:50.842Z,13.20
2022-12-03T19:57:23.501Z,13.35
2022-12-03T19:59:53.363Z,12.70
2022-12-03T20:02:21.553Z,13.30
2022-12-03T20:04:48.902Z,12.95
2022-12-03T20:07:16.268Z,11.70
2022-12-03T20:09:43.563Z,14.30
2022-12-03T20:12:10.919Z,15.00
2022-12-03T20:14:38.537Z,13.38
2022-12-03T20:17:07.623Z,14.55
2022-12-03T20:19:34.594Z,12.65
2022-12-03T20:22:03.055Z,14.77
2022-12-03T20:24:30.218Z,11.90
2022-12-03T20:26:57.463Z,12.95
2022-12-03T20:29:24.710Z,13.20
2022-12-03T20:31:51.682Z,10.73
2022-12-03T20:34:21.262Z,10.65
2022-12-03T20:36:48.043Z,14.63
2022-12-03T20:39:14.998Z,11.02
2022-12-03T20:41:42.241Z,11.75
2022-12-03T20:44:11.791Z,11.15
2022-12-03T20:46:38.714Z,10.95
2022-12-03T20:49:06.076Z,13.75
2022-12-03T20:51:33.175Z,10.17
2022-12-03T20:54:03.673Z,11.90
2022-12-03T20:56:36.317Z,11.13
2022-12-03T20:59:10.316Z,12.63
2022-12-03T21:01:38.798Z,12.40
2022-12-03T21:04:06.939Z,9.98
2022-12-03T21:06:36.328Z,11.82
2022-12-03T21:09:06.238Z,10.57
2022-12-03T21:11:37.114Z,12.13
2022-12-03T21:14:05.143Z,10.95
2022-12-03T21:17:07.101Z,11.80
2022-12-03T21:19:26.317Z,12.35
2022-12-03T21:21:53.372Z,12.40
2022-12-03T21:24:22.918Z,11.55
2022-12-03T21:26:50.319Z,11.60
2022-12-03T21:29:20.069Z,11.93
2022-12-03T21:31:49.622Z,12.13
2022-12-03T21:34:16.854Z,10.27
2022-12-03T21:36:44.244Z,10.73
2022-12-03T21:39:11.167Z,10.77
2022-12-03T21:41:38.897Z,9.57
2022-12-03T21:44:06.539Z,12.02
2022-12-03T21:47:09.145Z,10.55
2022-12-03T21:51:52.707Z,11.05
2022-12-03T21:54:20.518Z,9.45
2022-12-03T21:56:47.703Z,10.75
2022-12-03T21:59:15.136Z,12.82
2022-12-03T22:01:46.919Z,11.93
2022-12-03T22:04:17.037Z,11.98
2022-12-03T22:06:44.224Z,10.63
2022-12-03T22:09:14.136Z,11.30
2022-12-03T22:11:41.261Z,9.75
2022-12-03T22:14:09.923Z,11.75
2022-12-03T22:16:37.163Z,11.30
2022-12-03T22:19:04.414Z,10.03
2022-12-03T22:21:31.558Z,10.93
2022-12-03T22:23:58.804Z,10.48
2022-12-03T22:26:29.257Z,10.63
2022-12-03T22:28:59.027Z,11.15
2022-12-03T22:31:25.983Z,12.18
2022-12-03T22:33:52.937Z,11.07
2022-12-03T22:36:22.409Z,10.23
2022-12-03T22:38:50.418Z,10.90
2022-12-03T22:41:23.062Z,11.52
2022-12-03T22:43:50.185Z,10.35
2022-12-03T22:46:17.636Z,9.18
2022-12-03T22:48:46.614Z,15.85
2022-12-03T22:51:21.728Z,10.98
2022-12-03T22:53:53.897Z,11.65
2022-12-03T22:56:22.698Z,12.15
2022-12-03T22:58:52.614Z,9.82
2022-12-03T23:01:25.072Z,12.20
2022-12-03T23:03:55.288Z,10.48
2022-12-03T23:06:23.352Z,10.07
2022-12-03T23:08:50.897Z,9.68
2022-12-03T23:11:21.236Z,10.88
2022-12-03T23:13:49.010Z,10.80
2022-12-03T23:16:19.663Z,11.30
2022-12-03T23:18:48.731Z,11.43
2022-12-03T23:21:17.865Z,9.20
2022-12-03T23:23:44.949Z,10.75
2022-12-03T23:26:13.945Z,13.00
2022-12-03T23:28:45.074Z,10.98
2022-12-03T23:31:25.702Z,10.75
2022-12-03T23:33:55.908Z,9.70
2022-12-03T23:36:27.833Z,11.25
2022-12-03T23:38:55.006Z,11.45
2022-12-03T23:41:23.709Z,10.57
2022-12-03T23:43:53.378Z,9.60
2022-12-03T23:46:23.273Z,11.80
2022-12-03T23:48:51.356Z,11.63
2022-12-03T23:51:21.385Z,10.75
2022-12-03T23:53:48.606Z,10.57
2022-12-03T23:56:21.893Z,10.35
2022-12-03T23:58:49.386Z,10.80
